Time;durP1;ratioP1;P1;durP2;ratioP2;P2;SDS_P1;SDS_P2;PMS_P1;PMS_P2;Temp;Humidity;BMP_temperature;BMP_pressure;BME280_temperature;BME280_humidity;BME280_pressure;Samples;Min_cycle;Max_cycle;Signal;HPM_P1;HPM_P2
2023/05/07 00:01:26;;;;;;;6.07;5.47;;;17.90;71.30;;;;;;5042244;28;20041;-48
2023/05/07 00:03:54;;;;;;;5.28;4.85;;;17.80;71.30;;;;;;5051323;28;20531;-50
2023/05/07 00:06:26;;;;;;;5.05;4.35;;;17.80;71.30;;;;;;5031381;28;20060;-48
2023/05/07 00:08:59;;;;;;;5.03;4.60;;;17.70;71.50;;;;;;5014365;28;20410;-51
2023/05/07 00:11:27;;;;;;;6.03;5.53;;;17.70;71.50;;;;;;5043625;28;20033;-47
2023/05/07 00:13:57;;;;;;;5.85;5.22;;;17.70;71.60;;;;;;5050007;28;20041;-50
2023/05/07 00:16:27;;;;;;;6.15;5.55;;;17.70;71.70;;;;;;5024981;28;20079;-50
2023/05/07 00:18:56;;;;;;;5.82;5.32;;;17.60;72.20;;;;;;5051546;28;20036;-51
2023/05/07 00:21:27;;;;;;;6.38;5.78;;;17.60;71.70;;;;;;5050162;28;20052;-51
2023/05/07 00:23:59;;;;;;;6.20;5.70;;;17.60;71.80;;;;;;5049256;28;20091;-50
2023/05/07 00:26:25;;;;;;;5.68;5.22;;;17.60;71.90;;;;;;5031103;28;20030;-52
2023/05/07 00:28:52;;;;;;;6.55;5.95;;;17.50;71.70;;;;;;5013867;28;20049;-50
2023/05/07 00:31:21;;;;;;;7.15;5.65;;;17.50;71.80;;;;;;5026718;28;20063;-48
2023/05/07 00:33:58;;;;;;;6.20;5.70;;;17.40;71.70;;;;;;5032754;28;20041;-52
2023/05/07 00:36:26;;;;;;;6.68;6.00;;;17.50;71.70;;;;;;5048747;28;20769;-47
2023/05/07 00:38:53;;;;;;;6.38;5.50;;;17.40;71.60;;;;;;5031602;28;20504;-50
2023/05/07 00:41:26;;;;;;;7.53;6.93;;;17.40;71.70;;;;;;5024378;28;20044;-50
2023/05/07 00:43:53;;;;;;;7.50;6.82;;;17.30;71.70;;;;;;5043102;28;20037;-51
2023/05/07 00:46:21;;;;;;;7.78;6.97;;;17.30;71.60;;;;;;5041963;28;20041;-53
2023/05/07 00:48:51;;;;;;;6.70;6.10;;;17.30;71.60;;;;;;5049411;28;20432;-50
2023/05/07 00:51:20;;;;;;;7.20;6.32;;;17.30;71.60;;;;;;5049738;28;20417;-50
2023/05/07 00:53:47;;;;;;;6.50;5.90;;;17.30;71.70;;;;;;5031948;28;20045;-52
2023/05/07 00:56:14;;;;;;;6.32;5.82;;;17.30;71.80;;;;;;5048689;28;20044;-53
2023/05/07 00:58:44;;;;;;;6.25;5.75;;;17.20;71.70;;;;;;5049535;28;20087;-51
2023/05/07 01:01:15;;;;;;;5.65;5.15;;;17.30;71.80;;;;;;5049113;28;20053;-48
2023/05/07 01:03:43;;;;;;;5.50;5.10;;;17.20;71.80;;;;;;5049218;28;20041;-50
2023/05/07 01:06:12;;;;;;;6.30;5.70;;;17.20;72.00;;;;;;5029697;28;20064;-52
2023/05/07 01:08:44;;;;;;;6.18;5.50;;;17.20;72.10;;;;;;5026456;28;20049;-48
2023/05/07 01:11:11;;;;;;;5.38;4.97;;;17.20;72.30;;;;;;5029671;28;20046;-51
2023/05/07 01:13:42;;;;;;;5.78;5.35;;;17.20;72.30;;;;;;5040341;28;20037;-51
2023/05/07 01:16:10;;;;;;;5.53;5.13;;;17.20;72.40;;;;;;5047493;28;20044;-51
2023/05/07 01:18:39;;;;;;;5.40;5.00;;;17.20;72.60;;;;;;5026483;28;20148;-48
2023/05/07 01:21:10;;;;;;;6.28;5.68;;;17.20;72.60;;;;;;5011876;28;20478;-49
2023/05/07 01:23:41;;;;;;;5.90;5.40;;;17.20;72.70;;;;;;5044316;28;20037;-50
2023/05/07 01:26:07;;;;;;;6.63;6.03;;;17.30;72.70;;;;;;5030299;28;20045;-47
2023/05/07 01:28:37;;;;;;;6.40;5.80;;;17.30;72.80;;;;;;5047110;28;20033;-48
2023/05/07 01:31:06;;;;;;;6.57;5.97;;;17.30;72.90;;;;;;5024976;28;20050;-50
2023/05/07 01:33:36;;;;;;;6.80;6.10;;;17.30;72.80;;;;;;5047841;28;20120;-50
2023/05/07 01:36:08;;;;;;;7.53;6.85;;;17.30;72.90;;;;;;5037715;28;20136;-50
2023/05/07 01:38:39;;;;;;;6.25;5.75;;;17.30;72.80;;;;;;5048468;28;20099;-53
2023/05/07 01:41:07;;;;;;;7.03;6.43;;;17.30;72.80;;;;;;5030844;28;20099;-49
2023/05/07 01:43:36;;;;;;;7.28;6.53;;;17.30;72.80;;;;;;5025331;28;20073;-51
2023/05/07 01:46:09;;;;;;;7.85;5.78;;;17.30;73.00;;;;;;5048893;28;20045;-48
2023/05/07 01:48:37;;;;;;;7.13;6.25;;;17.30;72.90;;;;;;5030897;28;20044;-48
2023/05/07 01:51:10;;;;;;;6.57;5.97;;;17.30;73.10;;;;;;5014220;28;20037;-52
2023/05/07 01:53:40;;;;;;;7.18;6.05;;;17.30;73.10;;;;;;5020744;28;20045;-51
2023/05/07 01:56:09;;;;;;;6.45;5.85;;;17.30;73.10;;;;;;5026766;28;20417;-48
2023/05/07 01:58:40;;;;;;;7.32;6.53;;;17.30;72.90;;;;;;5030580;28;20055;-49
2023/05/07 02:01:07;;;;;;;7.07;6.38;;;17.30;72.90;;;;;;5029141;28;20045;-50
2023/05/07 02:03:36;;;;;;;7.43;6.72;;;17.30;72.70;;;;;;5026795;28;20528;-51
2023/05/07 02:06:10;;;;;;;7.40;6.75;;;17.30;72.60;;;;;;5024975;28;20050;-50
2023/05/07 02:08:39;;;;;;;8.20;6.68;;;17.30;72.50;;;;;;5039330;28;20082;-49
2023/05/07 02:11:11;;;;;;;8.00;7.30;;;17.30;73.10;;;;;;5025769;28;20701;-48
2023/05/07 02:13:43;;;;;;;6.85;6.13;;;17.20;72.40;;;;;;5026991;28;20413;-51
2023/05/07 02:16:14;;;;;;;6.72;6.13;;;17.20;72.80;;;;;;5047620;28;20425;-48
2023/05/07 02:18:45;;;;;;;10.65;6.95;;;17.20;72.10;;;;;;5030520;28;20061;-50
2023/05/07 02:21:12;;;;;;;7.97;7.28;;;17.20;71.90;;;;;;5031918;28;20052;-50
2023/05/07 02:23:41;;;;;;;8.63;6.90;;;17.20;71.90;;;;;;5045722;28;20048;-49
2023/05/07 02:26:15;;;;;;;7.40;6.80;;;17.10;71.90;;;;;;5049130;28;20049;-48
2023/05/07 02:28:48;;;;;;;6.88;6.03;;;17.10;71.90;;;;;;5030997;28;20041;-47
2023/05/07 02:31:15;;;;;;;6.40;5.90;;;17.00;71.80;;;;;;5028942;28;20455;-52
2023/05/07 02:33:45;;;;;;;6.45;5.78;;;17.00;71.70;;;;;;5049118;28;20037;-51
2023/05/07 02:36:12;;;;;;;6.28;5.68;;;17.00;71.80;;;;;;5048037;28;20112;-51
2023/05/07 02:38:51;;;;;;;7.03;6.05;;;16.90;71.70;;;;;;5030651;28;20071;-52
2023/05/07 02:41:18;;;;;;;6.40;5.70;;;16.90;71.80;;;;;;5028430;28;20049;-48
2023/05/07 02:43:49;;;;;;;6.78;6.18;;;16.90;71.80;;;;;;5047920;28;20068;-47
2023/05/07 02:46:21;;;;;;;6.87;6.27;;;16.90;71.90;;;;;;5024142;28;20130;-47
2023/05/07 02:48:55;;;;;;;6.60;6.00;;;16.90;72.10;;;;;;5030504;28;20041;-51
2023/05/07 02:51:25;;;;;;;8.70;7.80;;;16.80;72.10;;;;;;5031459;28;20497;-51
2023/05/07 02:53:57;;;;;;;7.35;6.65;;;16.80;72.20;;;;;;5030618;28;20588;-48
2023/05/07 02:56:30;;;;;;;7.40;6.65;;;16.80;72.30;;;;;;5047311;28;20077;-50
2023/05/07 02:58:56;;;;;;;7.00;6.40;;;16.80;72.30;;;;;;5030359;28;20049;-48
2023/05/07 03:01:27;;;;;;;6.75;6.15;;;16.80;72.50;;;;;;5031527;28;20080;-50
2023/05/07 03:04:14;;;;;;;6.45;5.85;;;16.80;72.50;;;;;;5044608;28;20140;-47
2023/05/07 03:06:43;;;;;;;6.43;5.82;;;16.80;72.50;;;;;;5010973;28;20064;-52
2023/05/07 03:09:12;;;;;;;6.10;5.60;;;16.80;72.50;;;;;;5010716;28;20064;-50
2023/05/07 03:11:42;;;;;;;5.95;5.30;;;16.70;72.50;;;;;;5026528;28;20071;-47
2023/05/07 03:14:08;;;;;;;6.15;5.57;;;16.80;72.70;;;;;;5030337;28;20044;-50
2023/05/07 03:16:38;;;;;;;6.40;5.85;;;16.80;72.70;;;;;;5021287;28;20048;-51
2023/05/07 03:19:08;;;;;;;7.70;6.10;;;16.80;72.70;;;;;;5048321;28;20420;-50
2023/05/07 03:21:34;;;;;;;5.80;5.30;;;16.70;72.70;;;;;;5029941;28;20046;-47
2023/05/07 03:24:06;;;;;;;6.47;5.88;;;16.80;72.70;;;;;;5028371;28;20084;-47
2023/05/07 03:26:35;;;;;;;6.00;5.50;;;16.70;72.80;;;;;;5027236;28;20136;-51
2023/05/07 03:29:05;;;;;;;6.10;5.32;;;16.80;72.70;;;;;;5044285;28;20048;-50
2023/05/07 03:31:33;;;;;;;5.60;5.10;;;16.80;72.70;;;;;;5051489;28;20041;-48
2023/05/07 03:34:05;;;;;;;5.45;4.80;;;16.80;72.70;;;;;;5051564;28;20041;-51
2023/05/07 03:36:34;;;;;;;5.55;5.05;;;16.80;72.60;;;;;;5030906;28;20076;-46
2023/05/07 03:39:02;;;;;;;5.97;5.03;;;16.80;72.80;;;;;;5019777;28;20124;-52
2023/05/07 03:41:36;;;;;;;6.47;5.80;;;16.70;72.60;;;;;;5032878;28;20041;-51
2023/05/07 03:44:03;;;;;;;6.60;5.97;;;16.70;72.70;;;;;;5052263;28;20116;-48
2023/05/07 03:46:35;;;;;;;14.13;8.38;;;16.70;72.80;;;;;;5030039;28;20045;-51
2023/05/07 03:49:08;;;;;;;7.20;6.18;;;16.70;72.60;;;;;;5034091;28;20131;-47
2023/05/07 03:51:35;;;;;;;6.75;6.15;;;16.70;73.10;;;;;;5053091;28;20032;-52
2023/05/07 03:54:04;;;;;;;6.82;6.15;;;16.70;72.50;;;;;;5033456;28;20053;-49
2023/05/07 03:56:32;;;;;;;7.65;6.45;;;16.70;72.50;;;;;;5034324;28;20063;-49
2023/05/07 03:59:05;;;;;;;6.32;5.68;;;16.60;72.40;;;;;;5033725;28;20056;-49
2023/05/07 04:01:32;;;;;;;7.38;6.35;;;16.70;72.50;;;;;;5052753;28;20087;-50
2023/05/07 04:03:59;;;;;;;6.63;6.03;;;16.60;72.40;;;;;;5027756;28;20041;-48
2023/05/07 04:06:27;;;;;;;6.65;5.90;;;16.60;72.30;;;;;;5050130;28;20049;-49
2023/05/07 04:08:54;;;;;;;7.22;5.50;;;16.60;72.30;;;;;;5032189;28;20540;-48
2023/05/07 04:11:23;;;;;;;6.15;5.65;;;16.50;72.30;;;;;;5032759;28;20547;-50
2023/05/07 04:13:55;;;;;;;5.90;5.30;;;16.50;72.40;;;;;;5034340;28;20660;-50
2023/05/07 04:16:27;;;;;;;6.05;5.55;;;16.50;72.60;;;;;;5029478;28;20520;-47
2023/05/07 04:18:56;;;;;;;6.00;5.50;;;16.50;72.70;;;;;;5033537;28;20508;-51
2023/05/07 04:21:23;;;;;;;6.07;5.55;;;16.50;72.70;;;;;;5050523;28;20278;-50
2023/05/07 04:23:53;;;;;;;5.80;5.13;;;16.50;72.60;;;;;;5033011;28;20044;-51
2023/05/07 04:26:21;;;;;;;5.78;5.22;;;16.50;72.70;;;;;;5023650;28;20048;-49
2023/05/07 04:28:47;;;;;;;5.82;5.32;;;16.50;72.80;;;;;;5031460;28;20065;-53
2023/05/07 04:31:17;;;;;;;7.10;5.40;;;16.50;73.00;;;;;;5030598;28;20436;-47
2023/05/07 04:33:48;;;;;;;6.20;5.60;;;16.50;73.10;;;;;;5018179;28;20064;-48
2023/05/07 04:36:27;;;;;;;5.75;5.07;;;16.60;73.20;;;;;;5057292;28;20099;-51
2023/05/07 04:39:02;;;;;;;5.82;5.32;;;16.60;73.40;;;;;;5048226;28;20037;-53
2023/05/07 04:41:32;;;;;;;6.38;5.88;;;16.60;73.30;;;;;;5047924;28;20405;-51
2023/05/07 04:44:04;;;;;;;5.00;4.60;;;16.60;73.50;;;;;;5017757;28;20045;-47
2023/05/07 04:46:33;;;;;;;7.35;6.50;;;16.60;73.60;;;;;;5048688;28;20132;-51
2023/05/07 04:49:01;;;;;;;6.65;6.00;;;16.70;73.70;;;;;;5057420;28;20052;-50
2023/05/07 04:51:28;;;;;;;5.78;5.28;;;16.70;73.80;;;;;;5030994;28;20041;-51
2023/05/07 04:53:55;;;;;;;7.15;6.18;;;16.70;73.90;;;;;;5030335;28;20059;-47
2023/05/07 04:56:27;;;;;;;5.80;5.30;;;16.70;73.90;;;;;;5034346;28;20041;-51
2023/05/07 04:58:53;;;;;;;7.07;5.40;;;16.80;74.20;;;;;;5025038;28;20128;-49
2023/05/07 05:01:21;;;;;;;6.20;5.60;;;16.80;74.10;;;;;;5030598;28;20052;-51
2023/05/07 05:03:50;;;;;;;6.20;5.60;;;16.90;74.20;;;;;;5032219;28;20040;-46
2023/05/07 05:06:20;;;;;;;9.02;6.75;;;16.90;74.30;;;;;;5015613;28;20046;-50
2023/05/07 05:08:54;;;;;;;7.05;6.38;;;17.00;74.40;;;;;;5012771;28;20048;-49
2023/05/07 05:11:21;;;;;;;6.43;5.90;;;17.00;74.40;;;;;;5025213;28;20140;-49
2023/05/07 05:13:49;;;;;;;7.53;6.82;;;17.10;74.50;;;;;;5029119;28;20128;-52
2023/05/07 05:16:18;;;;;;;8.20;6.60;;;17.10;74.60;;;;;;5026927;28;20052;-48
2023/05/07 05:18:47;;;;;;;7.63;6.93;;;17.20;74.70;;;;;;5032251;28;20411;-46
2023/05/07 05:21:17;;;;;;;7.90;6.85;;;17.20;74.70;;;;;;5033451;28;20045;-51
2023/05/07 05:23:58;;;;;;;7.38;5.90;;;17.30;74.80;;;;;;5033085;28;20079;-51
2023/05/07 05:26:30;;;;;;;7.72;7.00;;;17.30;75.30;;;;;;5048918;28;20496;-50
2023/05/07 05:28:57;;;;;;;7.13;6.43;;;17.30;74.70;;;;;;5018107;28;20571;-50
2023/05/07 05:31:26;;;;;;;7.15;6.50;;;17.40;74.70;;;;;;5032594;28;20087;-47
2023/05/07 05:33:55;;;;;;;7.82;7.05;;;17.40;74.70;;;;;;5045034;28;20094;-50
2023/05/07 05:36:22;;;;;;;8.13;7.32;;;17.40;74.60;;;;;;5032235;28;20045;-51
2023/05/07 05:38:53;;;;;;;8.57;7.05;;;17.50;74.70;;;;;;5038794;28;20075;-47
2023/05/07 05:41:24;;;;;;;8.30;7.55;;;17.50;74.60;;;;;;5049976;28;20048;-47
2023/05/07 05:43:55;;;;;;;9.10;7.10;;;17.50;74.60;;;;;;5033230;28;20069;-48
2023/05/07 05:46:24;;;;;;;7.82;7.03;;;17.50;74.60;;;;;;5025626;28;20080;-50
2023/05/07 05:48:51;;;;;;;8.65;7.55;;;17.60;74.70;;;;;;5031530;28;20515;-47
2023/05/07 05:51:21;;;;;;;7.65;6.95;;;17.60;74.70;;;;;;5032332;28;20057;-50
2023/05/07 05:53:48;;;;;;;7.97;7.18;;;17.70;74.90;;;;;;5029847;28;20045;-49
2023/05/07 05:56:16;;;;;;;8.25;6.68;;;17.70;74.80;;;;;;5028471;28;20046;-52
2023/05/07 05:58:43;;;;;;;7.90;7.18;;;17.80;74.90;;;;;;5045205;28;20048;-50
2023/05/07 06:01:11;;;;;;;7.82;7.00;;;17.80;75.00;;;;;;5029902;28;20057;-51
2023/05/07 06:03:41;;;;;;;9.48;7.63;;;17.80;75.00;;;;;;5024495;28;20115;-50
2023/05/07 06:06:14;;;;;;;9.07;7.85;;;17.90;74.90;;;;;;5016828;28;20050;-48
2023/05/07 06:08:43;;;;;;;8.82;7.93;;;18.00;74.80;;;;;;5011804;28;20057;-50
2023/05/07 06:11:15;;;;;;;9.93;8.50;;;18.10;74.80;;;;;;5012805;28;20046;-48
2023/05/07 06:13:44;;;;;;;9.88;7.43;;;18.20;74.80;;;;;;5029098;28;20045;-50
2023/05/07 06:16:13;;;;;;;8.05;7.25;;;18.30;74.60;;;;;;5046267;28;20037;-47
2023/05/07 06:18:42;;;;;;;7.65;6.28;;;18.30;74.40;;;;;;5047370;28;20045;-48
2023/05/07 06:21:13;;;;;;;7.85;6.65;;;18.40;74.40;;;;;;5028464;28;20049;-50
2023/05/07 06:23:42;;;;;;;8.27;7.07;;;18.50;74.40;;;;;;5043513;28;20069;-54
2023/05/07 06:26:16;;;;;;;6.95;6.25;;;18.60;74.20;;;;;;5045821;28;20083;-48
2023/05/07 06:28:48;;;;;;;7.05;6.13;;;18.70;73.90;;;;;;5030827;28;20634;-51
2023/05/07 06:31:20;;;;;;;7.28;6.57;;;18.70;73.60;;;;;;5046954;28;20037;-51
2023/05/07 06:33:53;;;;;;;7.85;7.05;;;18.80;73.40;;;;;;5031999;28;20049;-54
2023/05/07 06:36:31;;;;;;;7.10;6.25;;;18.90;73.20;;;;;;5015551;28;20049;-50
2023/05/07 06:39:00;;;;;;;9.70;6.88;;;19.00;73.00;;;;;;5018446;28;20045;-53
2023/05/07 06:41:27;;;;;;;8.50;6.28;;;19.10;72.80;;;;;;5022923;28;20547;-54
2023/05/07 06:43:58;;;;;;;7.13;6.50;;;19.10;72.60;;;;;;5021657;28;20045;-51
2023/05/07 06:46:53;;;;;;;7.13;5.95;;;19.20;72.50;;;;;;5037326;28;20855;-54
2023/05/07 06:49:22;;;;;;;6.20;5.57;;;19.30;72.40;;;;;;5040070;28;20456;-53
2023/05/07 06:51:49;;;;;;;7.78;5.57;;;19.30;72.00;;;;;;5030863;28;20037;-54
2023/05/07 06:54:16;;;;;;;6.38;5.68;;;19.40;72.00;;;;;;5016764;28;20528;-54
2023/05/07 06:56:45;;;;;;;7.07;5.70;;;19.40;71.90;;;;;;5022271;28;20057;-53
2023/05/07 06:59:12;;;;;;;5.78;5.18;;;19.50;71.80;;;;;;5027341;28;20041;-49
2023/05/07 07:01:41;;;;;;;5.88;5.28;;;19.60;71.80;;;;;;5031667;28;20079;-53
2023/05/07 07:04:09;;;;;;;5.90;5.40;;;19.70;71.80;;;;;;5031701;28;20574;-53
2023/05/07 07:06:37;;;;;;;6.53;5.90;;;19.80;71.70;;;;;;5029161;28;20139;-53
2023/05/07 07:09:08;;;;;;;6.30;5.72;;;19.90;71.50;;;;;;5034183;28;20049;-52
2023/05/07 07:11:35;;;;;;;6.30;5.70;;;19.90;71.30;;;;;;5032244;28;20045;-51
2023/05/07 07:14:02;;;;;;;5.28;4.78;;;20.10;71.40;;;;;;5033140;28;20049;-53
2023/05/07 07:16:31;;;;;;;5.68;5.18;;;20.20;71.30;;;;;;5033621;28;20456;-51
2023/05/07 07:18:59;;;;;;;5.40;4.90;;;20.20;70.90;;;;;;5035483;28;20409;-51
2023/05/07 07:21:29;;;;;;;8.77;4.70;;;20.40;70.90;;;;;;5033024;28;20140;-52
2023/05/07 07:23:56;;;;;;;7.15;4.95;;;20.30;70.70;;;;;;5047091;28;20045;-52
2023/05/07 07:26:23;;;;;;;4.72;4.22;;;20.50;70.70;;;;;;5046706;28;20051;-52
2023/05/07 07:28:49;;;;;;;5.32;4.53;;;20.60;70.30;;;;;;5030277;28;20042;-51
2023/05/07 07:31:20;;;;;;;5.88;5.15;;;20.70;70.30;;;;;;5043696;28;20525;-50
2023/05/07 07:33:50;;;;;;;7.43;5.43;;;20.80;70.00;;;;;;5030219;28;20131;-51
2023/05/07 07:36:19;;;;;;;4.95;4.45;;;20.90;70.70;;;;;;5039751;28;20128;-49
2023/05/07 07:38:47;;;;;;;5.10;4.70;;;21.00;69.20;;;;;;5033599;28;20397;-51
2023/05/07 07:41:16;;;;;;;5.07;4.57;;;21.10;68.90;;;;;;5034979;28;20045;-51
2023/05/07 07:43:43;;;;;;;5.70;4.38;;;21.10;68.70;;;;;;5028451;28;20108;-50
2023/05/07 07:46:10;;;;;;;4.70;4.30;;;21.20;68.40;;;;;;5030992;28;20095;-52
2023/05/07 07:48:36;;;;;;;4.53;3.95;;;21.30;68.30;;;;;;5046026;28;20114;-51
2023/05/07 07:51:03;;;;;;;4.47;4.13;;;21.40;68.50;;;;;;5033254;28;20228;-52
2023/05/07 07:53:30;;;;;;;4.43;4.03;;;21.50;68.40;;;;;;5020626;28;20036;-50
2023/05/07 07:55:57;;;;;;;5.35;4.85;;;21.50;67.70;;;;;;5029624;28;20076;-48
2023/05/07 07:58:27;;;;;;;5.30;4.10;;;21.60;67.70;;;;;;5021823;28;20037;-48
2023/05/07 08:00:55;;;;;;;5.68;4.22;;;21.70;67.40;;;;;;5015791;28;20042;-48
2023/05/07 08:03:23;;;;;;;5.55;3.60;;;21.70;67.10;;;;;;5014352;28;20060;-52
2023/05/07 08:05:54;;;;;;;5.43;3.60;;;21.80;66.80;;;;;;5023568;28;20098;-51
2023/05/07 08:08:21;;;;;;;4.47;3.80;;;21.90;66.90;;;;;;5034162;28;20132;-51
2023/05/07 08:10:50;;;;;;;3.63;3.22;;;21.90;66.40;;;;;;5033372;28;20037;-52
2023/05/07 08:13:24;;;;;;;4.18;3.78;;;21.90;66.10;;;;;;5026948;28;20072;-52
2023/05/07 08:15:51;;;;;;;4.25;3.85;;;22.00;65.80;;;;;;5042747;28;20124;-52
2023/05/07 08:18:17;;;;;;;5.55;3.55;;;22.00;65.80;;;;;;5032754;28;20509;-52
2023/05/07 08:20:45;;;;;;;3.42;3.13;;;22.10;65.60;;;;;;5051258;28;20475;-51
2023/05/07 08:23:16;;;;;;;3.03;2.80;;;22.10;65.40;;;;;;5049604;28;20049;-49
2023/05/07 08:25:44;;;;;;;5.28;3.78;;;22.20;65.00;;;;;;5031991;28;20247;-49
2023/05/07 08:28:12;;;;;;;4.97;3.25;;;22.20;64.40;;;;;;5031797;28;20505;-51
2023/05/07 08:30:39;;;;;;;3.15;2.92;;;22.20;64.20;;;;;;5050851;28;20049;-47
2023/05/07 08:33:09;;;;;;;4.20;2.85;;;22.30;64.30;;;;;;5033766;28;20068;-45
2023/05/07 08:35:36;;;;;;;4.90;3.45;;;22.30;64.00;;;;;;5026138;28;20123;-49
2023/05/07 08:38:06;;;;;;;3.80;2.75;;;22.30;64.20;;;;;;5046897;28;20052;-50
2023/05/07 08:40:38;;;;;;;2.88;2.42;;;22.40;64.20;;;;;;5047609;28;20648;-47
2023/05/07 08:43:12;;;;;;;2.97;2.78;;;22.50;63.90;;;;;;5029344;28;20053;-51
2023/05/07 08:45:40;;;;;;;5.40;2.90;;;22.50;64.00;;;;;;5027205;28;20128;-47
2023/05/07 08:48:16;;;;;;;3.60;3.28;;;22.60;63.90;;;;;;5020730;28;20049;-47
2023/05/07 08:50:50;;;;;;;2.97;2.58;;;22.70;63.00;;;;;;5022873;28;20048;-48
2023/05/07 08:53:17;;;;;;;2.88;2.63;;;22.80;63.50;;;;;;5050420;28;20037;-49
2023/05/07 08:55:45;;;;;;;3.15;2.80;;;22.80;63.60;;;;;;5020257;28;20175;-49
2023/05/07 08:58:13;;;;;;;3.33;2.70;;;22.90;63.60;;;;;;5032658;28;20044;-49
2023/05/07 09:00:42;;;;;;;6.07;2.70;;;22.90;63.10;;;;;;5028554;28;20455;-48
2023/05/07 09:03:12;;;;;;;3.15;2.85;;;23.00;62.80;;;;;;5033145;28;20055;-51
2023/05/07 09:05:40;;;;;;;3.08;2.80;;;23.10;62.60;;;;;;5032088;28;20144;-47
2023/05/07 09:08:08;;;;;;;3.63;2.80;;;23.20;62.60;;;;;;5024707;28;20055;-51
2023/05/07 09:10:36;;;;;;;3.65;2.85;;;23.20;62.10;;;;;;5032108;28;20045;-53
2023/05/07 09:13:05;;;;;;;3.92;3.47;;;23.30;62.30;;;;;;5032814;28;20044;-53
2023/05/07 09:15:31;;;;;;;3.22;2.92;;;23.30;62.00;;;;;;5029848;28;20041;-51
2023/05/07 09:18:01;;;;;;;3.03;2.75;;;23.30;62.00;;;;;;5050541;28;20040;-49
2023/05/07 09:20:31;;;;;;;3.15;2.85;;;23.30;62.00;;;;;;5048607;28;20747;-53
2023/05/07 09:22:59;;;;;;;3.67;2.60;;;23.30;62.10;;;;;;5012389;28;20068;-53
2023/05/07 09:25:31;;;;;;;2.95;2.60;;;23.40;62.20;;;;;;5031302;28;20140;-53
2023/05/07 09:28:04;;;;;;;3.47;3.17;;;23.40;62.20;;;;;;5029904;28;20076;-52
2023/05/07 09:30:32;;;;;;;6.38;4.22;;;23.50;62.00;;;;;;5049090;28;20052;-51
2023/05/07 09:33:02;;;;;;;4.05;3.45;;;23.60;61.50;;;;;;5008045;28;20049;-53
2023/05/07 09:35:31;;;;;;;4.95;3.58;;;23.70;61.40;;;;;;5047655;28;20041;-50
2023/05/07 09:38:03;;;;;;;3.67;3.38;;;23.70;61.10;;;;;;5027645;28;20065;-50
2023/05/07 09:40:33;;;;;;;3.97;3.42;;;23.80;60.70;;;;;;5023961;28;20052;-49
2023/05/07 09:43:12;;;;;;;3.07;2.87;;;23.80;60.40;;;;;;5014166;28;20081;-48
2023/05/07 09:45:51;;;;;;;3.20;2.90;;;23.80;60.20;;;;;;5045260;28;20815;-48
2023/05/07 09:48:20;;;;;;;3.28;2.85;;;23.80;60.10;;;;;;5031966;28;20048;-49
2023/05/07 09:50:51;;;;;;;3.22;2.85;;;23.80;60.50;;;;;;5024791;28;20041;-51
2023/05/07 09:53:22;;;;;;;3.30;2.95;;;23.70;60.40;;;;;;5028706;28;21094;-48
2023/05/07 09:55:50;;;;;;;3.47;3.17;;;23.70;60.60;;;;;;5027515;28;20041;-49
2023/05/07 09:58:20;;;;;;;3.45;3.15;;;23.70;60.60;;;;;;5030504;28;20041;-48
2023/05/07 10:00:47;;;;;;;3.30;3.00;;;23.70;60.40;;;;;;5043925;28;20051;-48
2023/05/07 10:03:18;;;;;;;5.50;2.70;;;23.80;60.40;;;;;;5032126;28;20094;-47
2023/05/07 10:05:54;;;;;;;3.10;2.80;;;23.80;60.80;;;;;;5029905;28;20053;-48
2023/05/07 10:08:22;;;;;;;2.65;2.45;;;23.80;60.20;;;;;;5027510;28;20128;-47
2023/05/07 10:10:52;;;;;;;3.65;2.83;;;23.90;60.60;;;;;;5022880;28;20136;-50
2023/05/07 10:13:23;;;;;;;5.90;3.28;;;24.00;60.60;;;;;;5017445;28;20041;-51
2023/05/07 10:15:55;;;;;;;4.30;3.10;;;24.10;60.30;;;;;;5016432;28;20099;-48
2023/05/07 10:18:29;;;;;;;5.50;3.15;;;24.30;60.30;;;;;;5030943;28;20131;-51
2023/05/07 10:21:06;;;;;;;3.47;2.90;;;24.30;59.60;;;;;;5027486;28;20166;-50
2023/05/07 10:23:34;;;;;;;3.97;2.72;;;24.50;59.50;;;;;;5033126;28;20052;-46
2023/05/07 10:26:05;;;;;;;2.97;2.05;;;24.60;59.10;;;;;;5019520;28;20045;-46
2023/05/07 10:28:37;;;;;;;2.58;2.30;;;24.70;58.90;;;;;;5031125;28;20048;-46
2023/05/07 10:31:32;;;;;;;2.53;2.35;;;24.80;58.60;;;;;;5049427;28;20041;-50
2023/05/07 10:34:00;;;;;;;3.67;3.05;;;24.90;58.10;;;;;;5046093;28;20056;-47
2023/05/07 10:36:28;;;;;;;2.80;2.40;;;24.90;58.10;;;;;;5055100;28;20045;-51
2023/05/07 10:38:55;;;;;;;2.50;2.28;;;25.00;57.90;;;;;;5034651;28;20481;-49
2023/05/07 10:41:22;;;;;;;3.38;2.15;;;25.00;57.60;;;;;;5035805;28;20119;-51
2023/05/07 10:43:50;;;;;;;3.65;2.40;;;25.00;57.40;;;;;;5035370;28;20052;-51
2023/05/07 10:46:22;;;;;;;3.05;1.98;;;25.10;57.70;;;;;;5051452;28;20036;-49
2023/05/07 10:49:11;;;;;;;2.35;2.15;;;25.10;57.30;;;;;;5056824;28;20049;-51
2023/05/07 10:52:18;;;;;;;2.45;2.22;;;25.10;57.20;;;;;;5033839;28;20138;-51
2023/05/07 10:55:24;;;;;;;2.53;1.80;;;25.20;56.90;;;;;;5029608;28;20110;-47
2023/05/07 10:58:34;;;;;;;2.88;1.75;;;25.20;56.80;;;;;;5050494;28;20052;-48
2023/05/07 11:02:07;;;;;;;2.35;1.70;;;25.30;56.20;;;;;;5016660;28;20132;-51
2023/05/07 11:04:41;;;;;;;1.35;1.25;;;25.30;55.40;;;;;;5035704;28;20037;-51
2023/05/07 11:07:27;;;;;;;1.60;1.50;;;25.40;55.50;;;;;;5031688;28;20044;-49
2023/05/07 11:10:01;;;;;;;;;;;25.40;55.10;;;;;;5031559;28;20052;-47
2023/05/07 11:12:39;;;;;;;0.98;0.95;;;25.50;57.20;;;;;;5054011;28;19963;-51
2023/05/07 11:15:17;;;;;;;1.20;1.10;;;25.50;55.60;;;;;;5031772;28;20136;-48
2023/05/07 11:17:57;;;;;;;1.73;1.30;;;25.50;55.30;;;;;;5049551;28;20045;-50
2023/05/07 11:20:45;;;;;;;1.23;1.05;;;25.60;53.90;;;;;;5033911;28;20052;-49
2023/05/07 11:23:37;;;;;;;1.38;1.27;;;25.60;53.20;;;;;;5035642;28;20041;-51
2023/05/07 11:26:28;;;;;;;1.67;1.00;;;25.70;53.30;;;;;;5052373;28;20146;-50
2023/05/07 11:28:55;;;;;;;0.82;0.77;;;25.80;53.90;;;;;;5034032;28;20049;-50
2023/05/07 11:31:28;;;;;;;1.67;1.00;;;25.90;53.60;;;;;;5047537;28;20045;-48
2023/05/07 11:33:57;;;;;;;1.52;1.08;;;25.90;53.00;;;;;;5036920;28;20052;-47
2023/05/07 11:36:24;;;;;;;1.48;1.38;;;25.90;52.60;;;;;;5035107;28;20131;-47
2023/05/07 11:38:54;;;;;;;1.13;0.95;;;26.00;51.90;;;;;;5033397;28;20049;-51
2023/05/07 11:41:32;;;;;;;2.40;1.08;;;26.10;51.70;;;;;;5053112;28;20086;-48
2023/05/07 11:44:00;;;;;;;2.65;1.17;;;26.10;51.80;;;;;;5055014;28;20053;-48
2023/05/07 11:46:28;;;;;;;3.28;1.10;;;26.10;51.60;;;;;;5052225;28;20049;-49
2023/05/07 11:48:55;;;;;;;1.15;1.10;;;26.20;51.50;;;;;;5048935;28;20048;-50
2023/05/07 11:51:25;;;;;;;2.35;1.35;;;26.10;51.50;;;;;;5049408;28;20037;-49
2023/05/07 11:53:53;;;;;;;1.60;1.50;;;26.10;51.80;;;;;;5051196;28;20497;-52
2023/05/07 11:56:20;;;;;;;1.35;0.90;;;26.10;51.30;;;;;;5031351;28;20033;-48
2023/05/07 11:58:47;;;;;;;1.65;1.08;;;26.00;51.70;;;;;;5043925;28;20044;-47
2023/05/07 12:01:16;;;;;;;1.42;1.33;;;26.00;52.30;;;;;;5040274;28;20470;-47
2023/05/07 12:03:45;;;;;;;1.58;1.17;;;25.90;52.20;;;;;;5035324;28;20073;-48
2023/05/07 12:06:15;;;;;;;2.17;1.08;;;25.80;52.30;;;;;;5034273;28;20048;-50
2023/05/07 12:08:43;;;;;;;1.48;1.10;;;25.70;52.00;;;;;;5043696;28;20688;-51
2023/05/07 12:11:17;;;;;;;0.90;0.90;;;25.60;51.60;;;;;;5051375;28;20047;-50
2023/05/07 12:13:44;;;;;;;1.52;0.90;;;25.60;51.90;;;;;;5052236;28;20037;-49
2023/05/07 12:16:11;;;;;;;1.95;1.10;;;25.50;52.80;;;;;;5048624;28;20041;-50
2023/05/07 12:18:38;;;;;;;1.05;1.00;;;25.40;52.40;;;;;;5050627;28;20037;-47
2023/05/07 12:21:06;;;;;;;1.50;1.40;;;25.30;52.00;;;;;;5065765;22;20044;-46
2023/05/07 12:23:34;;;;;;;1.58;1.40;;;25.30;52.40;;;;;;5050890;28;20040;-47
2023/05/07 12:26:02;;;;;;;2.88;1.50;;;25.20;52.90;;;;;;5050146;28;20047;-46
2023/05/07 12:28:38;;;;;;;1.13;1.10;;;25.10;53.10;;;;;;5034784;28;20140;-47
2023/05/07 12:31:05;;;;;;;1.88;1.45;;;25.10;52.70;;;;;;5049287;28;20115;-49
2023/05/07 12:33:32;;;;;;;2.45;1.50;;;25.00;53.00;;;;;;5045229;28;20045;-49
2023/05/07 12:36:03;;;;;;;2.45;1.52;;;24.90;53.00;;;;;;5038659;28;20072;-49
2023/05/07 12:38:38;;;;;;;2.60;1.45;;;24.90;53.20;;;;;;5050435;28;20064;-50
2023/05/07 12:41:06;;;;;;;1.48;1.13;;;24.80;53.70;;;;;;5039303;28;20418;-51
2023/05/07 12:43:33;;;;;;;2.40;2.03;;;24.70;54.40;;;;;;5024667;28;20042;-46
2023/05/07 12:46:03;;;;;;;1.95;1.30;;;24.70;54.20;;;;;;5048374;28;20037;-50
2023/05/07 12:48:30;;;;;;;3.25;1.35;;;24.60;54.20;;;;;;5051170;28;20040;-51
2023/05/07 12:50:58;;;;;;;3.10;1.30;;;24.60;53.90;;;;;;5043601;28;20382;-51
2023/05/07 12:53:27;;;;;;;2.13;1.58;;;24.60;54.60;;;;;;5032405;28;20048;-51
2023/05/07 12:55:56;;;;;;;1.63;1.35;;;24.60;54.90;;;;;;5044198;28;20117;-49
2023/05/07 12:58:29;;;;;;;3.58;1.42;;;24.60;54.60;;;;;;5045757;28;20453;-52
2023/05/07 13:01:00;;;;;;;2.10;1.42;;;24.70;54.30;;;;;;5045182;28;20548;-50
2023/05/07 13:03:29;;;;;;;1.42;1.33;;;24.70;53.80;;;;;;5048601;28;20047;-51
2023/05/07 13:06:02;;;;;;;2.13;1.20;;;24.80;53.90;;;;;;5047256;28;20045;-46